sensor_id;sensor_type;location;lat;lon;timestamp;pressure;altitude;pressure_sealevel;temperature;humidity
8318;BME280;4196;48.926;8.964;2023-04-28T00:02:30;98836.53;;;8.94;100.00
8318;BME280;4196;48.926;8.964;2023-04-28T00:05:17;98862.38;;;9.22;100.00
8318;BME280;4196;48.926;8.964;2023-04-28T00:08:04;98860.66;;;9.02;100.00
8318;BME280;4196;48.926;8.964;2023-04-28T00:10:50;98874.41;;;9.16;100.00
8318;BME280;4196;48.926;8.964;2023-04-28T00:13:37;98845.16;;;8.99;100.00
8318;BME280;4196;48.926;8.964;2023-04-28T00:16:23;98850.31;;;8.96;100.00
8318;BME280;4196;48.926;8.964;2023-04-28T00:19:10;98821.91;;;8.85;100.00
8318;BME280;4196;48.926;8.964;2023-04-28T00:21:56;98849.47;;;8.95;100.00
8318;BME280;4196;48.926;8.964;2023-04-28T00:24:42;98835.69;;;9.06;100.00
8318;BME280;4196;48.926;8.964;2023-04-28T00:27:28;98824.47;;;9.13;100.00
8318;BME280;4196;48.926;8.964;2023-04-28T00:30:15;98854.59;;;9.38;100.00
8318;BME280;4196;48.926;8.964;2023-04-28T00:33:02;98847.69;;;9.34;100.00
8318;BME280;4196;48.926;8.964;2023-04-28T00:35:49;98803.84;;;8.96;100.00
8318;BME280;4196;48.926;8.964;2023-04-28T00:38:35;98841.69;;;9.28;100.00
8318;BME280;4196;48.926;8.964;2023-04-28T00:41:21;98842.56;;;9.25;100.00
8318;BME280;4196;48.926;8.964;2023-04-28T00:44:08;98837.41;;;9.10;100.00
8318;BME280;4196;48.926;8.964;2023-04-28T00:46:55;98817.59;;;8.93;100.00
8318;BME280;4196;48.926;8.964;2023-04-28T00:49:41;98796.94;;;8.75;100.00
8318;BME280;4196;48.926;8.964;2023-04-28T00:52:28;98805.53;;;8.83;100.00
8318;BME280;4196;48.926;8.964;2023-04-28T00:55:15;98821.91;;;8.91;100.00
8318;BME280;4196;48.926;8.964;2023-04-28T00:58:02;98799.53;;;8.75;100.00
8318;BME280;4196;48.926;8.964;2023-04-28T01:00:48;98819.31;;;8.88;100.00
8318;BME280;4196;48.926;8.964;2023-04-28T01:03:38;98809.84;;;9.12;100.00
8318;BME280;4196;48.926;8.964;2023-04-28T01:06:26;98803.81;;;9.01;100.00
8318;BME280;4196;48.926;8.964;2023-04-28T01:09:16;98819.31;;;9.25;100.00
8318;BME280;4196;48.926;8.964;2023-04-28T01:12:03;98759.97;;;8.84;100.00
8318;BME280;4196;48.926;8.964;2023-04-28T01:15:06;98775.41;;;8.94;100.00
8318;BME280;4196;48.926;8.964;2023-04-28T01:17:56;98759.09;;;8.85;100.00
8318;BME280;4196;48.926;8.964;2023-04-28T01:20:43;98760.78;;;8.90;100.00
8318;BME280;4196;48.926;8.964;2023-04-28T01:23:30;98773.69;;;9.09;100.00
8318;BME280;4196;48.926;8.964;2023-04-28T01:26:17;98787.47;;;9.14;100.00
8318;BME280;4196;48.926;8.964;2023-04-28T01:29:03;98765.06;;;9.25;100.00
8318;BME280;4196;48.926;8.964;2023-04-28T01:31:49;98768.47;;;9.30;100.00
8318;BME280;4196;48.926;8.964;2023-04-28T01:34:37;98787.44;;;9.35;100.00
8318;BME280;4196;48.926;8.964;2023-04-28T01:37:25;98777.13;;;9.14;100.00
8318;BME280;4196;48.926;8.964;2023-04-28T01:40:12;98783.13;;;9.16;100.00
8318;BME280;4196;48.926;8.964;2023-04-28T01:42:59;98717.78;;;8.85;100.00
8318;BME280;4196;48.926;8.964;2023-04-28T01:45:48;98739.25;;;9.07;100.00
8318;BME280;4196;48.926;8.964;2023-04-28T01:48:34;98759.88;;;9.22;100.00
8318;BME280;4196;48.926;8.964;2023-04-28T01:51:21;98743.53;;;9.23;100.00
8318;BME280;4196;48.926;8.964;2023-04-28T01:54:07;98749.56;;;9.16;100.00
8318;BME280;4196;48.926;8.964;2023-04-28T01:56:54;98742.72;;;8.97;100.00
8318;BME280;4196;48.926;8.964;2023-04-28T01:59:41;98759.06;;;9.03;100.00
8318;BME280;4196;48.926;8.964;2023-04-28T02:02:28;98694.56;;;8.74;100.00
8318;BME280;4196;48.926;8.964;2023-04-28T02:05:15;98752.97;;;9.24;100.00
8318;BME280;4196;48.926;8.964;2023-04-28T02:08:01;98712.59;;;8.86;100.00
8318;BME280;4196;48.926;8.964;2023-04-28T02:10:48;98768.50;;;9.21;100.00
8318;BME280;4196;48.926;8.964;2023-04-28T02:13:34;98754.72;;;9.30;100.00
8318;BME280;4196;48.926;8.964;2023-04-28T02:16:21;98687.66;;;8.91;100.00
8318;BME280;4196;48.926;8.964;2023-04-28T02:19:09;98746.94;;;9.31;100.00
8318;BME280;4196;48.926;8.964;2023-04-28T02:21:55;98765.03;;;9.34;100.00
8318;BME280;4196;48.926;8.964;2023-04-28T02:24:42;98734.09;;;9.10;100.00
8318;BME280;4196;48.926;8.964;2023-04-28T02:27:28;98758.16;;;9.26;100.00
8318;BME280;4196;48.926;8.964;2023-04-28T02:30:15;98748.69;;;9.22;100.00
8318;BME280;4196;48.926;8.964;2023-04-28T02:33:01;98739.22;;;9.16;100.00
8318;BME280;4196;48.926;8.964;2023-04-28T02:35:57;98755.56;;;9.36;100.00
8318;BME280;4196;48.926;8.964;2023-04-28T02:38:44;98735.78;;;9.23;100.00
8318;BME280;4196;48.926;8.964;2023-04-28T02:41:30;98732.34;;;9.15;100.00
8318;BME280;4196;48.926;8.964;2023-04-28T02:44:20;98758.97;;;9.38;100.00
8318;BME280;4196;48.926;8.964;2023-04-28T02:47:06;98766.72;;;9.38;100.00
8318;BME280;4196;48.926;8.964;2023-04-28T02:49:53;98783.94;;;9.55;100.00
8318;BME280;4196;48.926;8.964;2023-04-28T02:52:40;98779.66;;;9.44;100.00
8318;BME280;4196;48.926;8.964;2023-04-28T02:55:26;98761.53;;;9.49;100.00
8318;BME280;4196;48.926;8.964;2023-04-28T02:58:14;98736.59;;;9.37;100.00
8318;BME280;4196;48.926;8.964;2023-04-28T03:01:00;98772.72;;;9.53;100.00
8318;BME280;4196;48.926;8.964;2023-04-28T03:03:47;98773.59;;;9.42;100.00
8318;BME280;4196;48.926;8.964;2023-04-28T03:06:34;98751.22;;;9.51;100.00
8318;BME280;4196;48.926;8.964;2023-04-28T03:09:20;98769.28;;;9.52;100.00
8318;BME280;4196;48.926;8.964;2023-04-28T03:12:07;98725.47;;;9.14;100.00
8318;BME280;4196;48.926;8.964;2023-04-28T03:14:53;98763.31;;;9.30;100.00
8318;BME280;4196;48.926;8.964;2023-04-28T03:17:40;98759.84;;;9.31;100.00
8318;BME280;4196;48.926;8.964;2023-04-28T03:20:28;98725.47;;;9.17;100.00
8318;BME280;4196;48.926;8.964;2023-04-28T03:23:15;98746.09;;;9.29;100.00
8318;BME280;4196;48.926;8.964;2023-04-28T03:26:01;98745.19;;;9.42;100.00
8318;BME280;4196;48.926;8.964;2023-04-28T03:28:48;98742.63;;;9.36;100.00
8318;BME280;4196;48.926;8.964;2023-04-28T03:31:35;98706.53;;;9.18;100.00
8318;BME280;4196;48.926;8.964;2023-04-28T03:34:22;98665.25;;;8.93;100.00
8318;BME280;4196;48.926;8.964;2023-04-28T03:37:08;98720.28;;;9.26;100.00
8318;BME280;4196;48.926;8.964;2023-04-28T03:39:55;98718.50;;;9.34;100.00
8318;BME280;4196;48.926;8.964;2023-04-28T03:42:41;98687.56;;;9.25;100.00
8318;BME280;4196;48.926;8.964;2023-04-28T03:45:31;98684.16;;;9.14;100.00
8318;BME280;4196;48.926;8.964;2023-04-28T03:48:17;98685.88;;;9.09;100.00
8318;BME280;4196;48.926;8.964;2023-04-28T03:51:04;98685.03;;;9.07;100.00
8318;BME280;4196;48.926;8.964;2023-04-28T03:53:51;98678.91;;;9.28;100.00
8318;BME280;4196;48.926;8.964;2023-04-28T03:56:37;98697.88;;;9.28;100.00
8318;BME280;4196;48.926;8.964;2023-04-28T03:59:24;98696.22;;;9.13;100.00
8318;BME280;4196;48.926;8.964;2023-04-28T04:02:10;98632.59;;;8.74;100.00
8318;BME280;4196;48.926;8.964;2023-04-28T04:04:57;98692.72;;;9.19;100.00
8318;BME280;4196;48.926;8.964;2023-04-28T04:07:44;98714.25;;;9.29;100.00
8318;BME280;4196;48.926;8.964;2023-04-28T04:10:31;98681.50;;;9.26;100.00
8318;BME280;4196;48.926;8.964;2023-04-28T04:13:18;98689.31;;;9.17;100.00
8318;BME280;4196;48.926;8.964;2023-04-28T04:16:05;98692.72;;;9.28;100.00
8318;BME280;4196;48.926;8.964;2023-04-28T04:18:51;98675.50;;;9.16;100.00
8318;BME280;4196;48.926;8.964;2023-04-28T04:21:41;98721.91;;;9.46;100.00
8318;BME280;4196;48.926;8.964;2023-04-28T04:24:27;98684.94;;;9.27;100.00
8318;BME280;4196;48.926;8.964;2023-04-28T04:27:14;98704.69;;;9.48;100.00
8318;BME280;4196;48.926;8.964;2023-04-28T04:30:00;98660.84;;;9.23;100.00
8318;BME280;4196;48.926;8.964;2023-04-28T04:32:47;98717.56;;;9.61;100.00
8318;BME280;4196;48.926;8.964;2023-04-28T04:35:33;98703.81;;;9.55;100.00
8318;BME280;4196;48.926;8.964;2023-04-28T04:38:20;98685.78;;;9.39;100.00
8318;BME280;4196;48.926;8.964;2023-04-28T04:41:07;98650.47;;;9.34;100.00
8318;BME280;4196;48.926;8.964;2023-04-28T04:43:53;98687.41;;;9.62;100.00
8318;BME280;4196;48.926;8.964;2023-04-28T04:46:47;98674.53;;;9.51;100.00
8318;BME280;4196;48.926;8.964;2023-04-28T04:49:36;98659.88;;;9.55;100.00
8318;BME280;4196;48.926;8.964;2023-04-28T04:52:23;98630.66;;;9.39;100.00
8318;BME280;4196;48.926;8.964;2023-04-28T04:55:10;98680.44;;;9.75;100.00
8318;BME280;4196;48.926;8.964;2023-04-28T04:57:59;98667.53;;;9.70;100.00
8318;BME280;4196;48.926;8.964;2023-04-28T05:01:04;98685.53;;;9.85;100.00
8318;BME280;4196;48.926;8.964;2023-04-28T05:03:50;98699.38;;;9.78;100.00
8318;BME280;4196;48.926;8.964;2023-04-28T05:06:39;98666.72;;;9.62;100.00
8318;BME280;4196;48.926;8.964;2023-04-28T05:09:26;98681.38;;;9.58;100.00
8318;BME280;4196;48.926;8.964;2023-04-28T05:12:12;98671.91;;;9.56;100.00
8318;BME280;4196;48.926;8.964;2023-04-28T05:14:58;98671.09;;;9.51;100.00
8318;BME280;4196;48.926;8.964;2023-04-28T05:17:45;98695.13;;;9.70;100.00
8318;BME280;4196;48.926;8.964;2023-04-28T05:20:31;98665.03;;;9.55;100.00
8318;BME280;4196;48.926;8.964;2023-04-28T05:23:17;98680.38;;;9.82;100.00
8318;BME280;4196;48.926;8.964;2023-04-28T05:26:04;98676.91;;;9.89;100.00
8318;BME280;4196;48.926;8.964;2023-04-28T05:28:51;98672.63;;;9.82;100.00
8318;BME280;4196;48.926;8.964;2023-04-28T05:31:38;98669.25;;;9.76;100.00
8318;BME280;4196;48.926;8.964;2023-04-28T05:34:24;98673.47;;;9.87;100.00
8318;BME280;4196;48.926;8.964;2023-04-28T05:37:11;98695.00;;;9.92;100.00
8318;BME280;4196;48.926;8.964;2023-04-28T05:39:59;98676.03;;;9.95;100.00
8318;BME280;4196;48.926;8.964;2023-04-28T05:42:45;98590.16;;;9.44;100.00
8318;BME280;4196;48.926;8.964;2023-04-28T05:45:32;98670.03;;;9.82;100.00
8318;BME280;4196;48.926;8.964;2023-04-28T05:48:19;98686.31;;;10.03;100.00
8318;BME280;4196;48.926;8.964;2023-04-28T05:51:05;98685.31;;;10.19;100.00
8318;BME280;4196;48.926;8.964;2023-04-28T05:53:52;98680.97;;;10.29;100.00
8318;BME280;4196;48.926;8.964;2023-04-28T05:56:39;98680.06;;;10.34;100.00
8318;BME280;4196;48.926;8.964;2023-04-28T05:59:27;98656.03;;;10.17;100.00
8318;BME280;4196;48.926;8.964;2023-04-28T06:02:16;98681.81;;;10.32;100.00
8318;BME280;4196;48.926;8.964;2023-04-28T06:05:06;98684.31;;;10.45;100.00
8318;BME280;4196;48.926;8.964;2023-04-28T06:07:54;98688.56;;;10.49;100.00
8318;BME280;4196;48.926;8.964;2023-04-28T06:10:41;98692.75;;;10.63;100.00
8318;BME280;4196;48.926;8.964;2023-04-28T06:13:28;98688.34;;;10.76;100.00
8318;BME280;4196;48.926;8.964;2023-04-28T06:16:15;98670.28;;;10.72;100.00
8318;BME280;4196;48.926;8.964;2023-04-28T06:19:02;98669.22;;;10.89;100.00
8318;BME280;4196;48.926;8.964;2023-04-28T06:21:49;98686.31;;;11.09;100.00
8318;BME280;4196;48.926;8.964;2023-04-28T06:24:36;98673.22;;;11.20;100.00
8318;BME280;4196;48.926;8.964;2023-04-28T06:27:27;98675.56;;;11.40;100.00
8318;BME280;4196;48.926;8.964;2023-04-28T06:30:20;98665.09;;;11.49;100.00
8318;BME280;4196;48.926;8.964;2023-04-28T06:33:08;98664.31;;;11.41;100.00
8318;BME280;4196;48.926;8.964;2023-04-28T06:35:55;98651.44;;;11.34;100.00
8318;BME280;4196;48.926;8.964;2023-04-28T06:38:44;98675.41;;;11.52;100.00
8318;BME280;4196;48.926;8.964;2023-04-28T06:41:31;98672.03;;;11.47;100.00
8318;BME280;4196;48.926;8.964;2023-04-28T06:44:19;98661.69;;;11.44;100.00
8318;BME280;4196;48.926;8.964;2023-04-28T06:47:07;98662.53;;;11.46;100.00
8318;BME280;4196;48.926;8.964;2023-04-28T06:49:56;98665.97;;;11.48;100.00
8318;BME280;4196;48.926;8.964;2023-04-28T06:52:43;98654.78;;;11.46;100.00
8318;BME280;4196;48.926;8.964;2023-04-28T06:55:30;98643.56;;;11.41;100.00
8318;BME280;4196;48.926;8.964;2023-04-28T06:58:17;98665.81;;;11.60;100.00
8318;BME280;4196;48.926;8.964;2023-04-28T07:01:04;98630.41;;;11.56;100.00
8318;BME280;4196;48.926;8.964;2023-04-28T07:03:51;98659.69;;;11.66;100.00
8318;BME280;4196;48.926;8.964;2023-04-28T07:06:37;98655.31;;;11.69;100.00
8318;BME280;4196;48.926;8.964;2023-04-28T07:09:24;98657.91;;;11.69;100.00
8318;BME280;4196;48.926;8.964;2023-04-28T07:12:11;98661.38;;;11.68;100.00
8318;BME280;4196;48.926;8.964;2023-04-28T07:14:57;98639.00;;;11.61;100.00
8318;BME280;4196;48.926;8.964;2023-04-28T07:17:44;98654.63;;;11.55;100.00
8318;BME280;4196;48.926;8.964;2023-04-28T07:20:31;98633.81;;;11.59;100.00
8318;BME280;4196;48.926;8.964;2023-04-28T07:23:17;98643.44;;;11.51;100.00
8318;BME280;4196;48.926;8.964;2023-04-28T07:26:03;98656.66;;;11.31;100.00
8318;BME280;4196;48.926;8.964;2023-04-28T07:28:50;98663.50;;;11.39;100.00
8318;BME280;4196;48.926;8.964;2023-04-28T07:31:37;98673.06;;;11.32;100.00
8318;BME280;4196;48.926;8.964;2023-04-28T07:34:23;98651.72;;;11.10;100.00
8318;BME280;4196;48.926;8.964;2023-04-28T07:37:10;98680.88;;;11.30;100.00
8318;BME280;4196;48.926;8.964;2023-04-28T07:39:57;98670.75;;;11.09;100.00
8318;BME280;4196;48.926;8.964;2023-04-28T07:42:44;98682.97;;;10.98;100.00
8318;BME280;4196;48.926;8.964;2023-04-28T07:45:31;98686.47;;;10.89;100.00
8318;BME280;4196;48.926;8.964;2023-04-28T07:48:17;98685.72;;;10.81;100.00
8318;BME280;4196;48.926;8.964;2023-04-28T07:51:04;98627.38;;;10.42;100.00
8318;BME280;4196;48.926;8.964;2023-04-28T07:53:51;98693.66;;;10.62;100.00
8318;BME280;4196;48.926;8.964;2023-04-28T07:56:37;98714.41;;;10.58;100.00
8318;BME280;4196;48.926;8.964;2023-04-28T07:59:24;98705.03;;;10.43;100.00
8318;BME280;4196;48.926;8.964;2023-04-28T08:02:10;98684.34;;;10.40;100.00
8318;BME280;4196;48.926;8.964;2023-04-28T08:04:58;98690.19;;;10.62;100.00
8318;BME280;4196;48.926;8.964;2023-04-28T08:07:45;98693.56;;;10.70;100.00
8318;BME280;4196;48.926;8.964;2023-04-28T08:10:31;98670.34;;;10.62;100.00
8318;BME280;4196;48.926;8.964;2023-04-28T08:13:18;98710.63;;;10.93;100.00
8318;BME280;4196;48.926;8.964;2023-04-28T08:16:05;98708.72;;;11.10;100.00
8318;BME280;4196;48.926;8.964;2023-04-28T08:18:52;98700.09;;;11.08;100.00
8318;BME280;4196;48.926;8.964;2023-04-28T08:21:38;98687.03;;;11.19;100.00
8318;BME280;4196;48.926;8.964;2023-04-28T08:24:25;98705.94;;;11.28;100.00
8318;BME280;4196;48.926;8.964;2023-04-28T08:27:15;98706.91;;;11.18;100.00
8318;BME280;4196;48.926;8.964;2023-04-28T08:30:01;98702.75;;;11.05;100.00
8318;BME280;4196;48.926;8.964;2023-04-28T08:32:50;98707.00;;;11.12;100.00
8318;BME280;4196;48.926;8.964;2023-04-28T08:35:37;98701.88;;;11.06;100.00
8318;BME280;4196;48.926;8.964;2023-04-28T08:38:23;98725.00;;;11.23;100.00
8318;BME280;4196;48.926;8.964;2023-04-28T08:41:13;98720.56;;;11.35;100.00
8318;BME280;4196;48.926;8.964;2023-04-28T08:44:00;98723.75;;;11.57;100.00
8318;BME280;4196;48.926;8.964;2023-04-28T08:46:48;98708.84;;;11.75;100.00
8318;BME280;4196;48.926;8.964;2023-04-28T08:49:35;98707.69;;;11.99;100.00
8318;BME280;4196;48.926;8.964;2023-04-28T08:52:23;98691.19;;;12.03;100.00
8318;BME280;4196;48.926;8.964;2023-04-28T08:55:12;98712.69;;;12.11;100.00
8318;BME280;4196;48.926;8.964;2023-04-28T08:57:59;98710.72;;;12.28;100.00
8318;BME280;4196;48.926;8.964;2023-04-28T09:00:48;98716.84;;;12.24;100.00
8318;BME280;4196;48.926;8.964;2023-04-28T09:03:34;98737.53;;;12.30;100.00
8318;BME280;4196;48.926;8.964;2023-04-28T09:06:21;98725.44;;;12.28;100.00
8318;BME280;4196;48.926;8.964;2023-04-28T09:12:07;98738.41;;;11.61;100.00
8318;BME280;4196;48.926;8.964;2023-04-28T09:14:57;98729.22;;;11.34;100.00
8318;BME280;4196;48.926;8.964;2023-04-28T09:17:50;98754.88;;;11.56;100.00
8318;BME280;4196;48.926;8.964;2023-04-28T09:20:37;98741.75;;;11.71;100.00
8318;BME280;4196;48.926;8.964;2023-04-28T09:23:24;98732.81;;;11.95;100.00
8318;BME280;4196;48.926;8.964;2023-04-28T09:26:10;98731.56;;;12.24;100.00
8318;BME280;4196;48.926;8.964;2023-04-28T09:29:10;98717.53;;;12.36;100.00
8318;BME280;4196;48.926;8.964;2023-04-28T09:32:15;98736.38;;;12.48;100.00
8318;BME280;4196;48.926;8.964;2023-04-28T09:35:03;98730.09;;;12.62;100.00
8318;BME280;4196;48.926;8.964;2023-04-28T09:37:57;98725.56;;;12.74;100.00
8318;BME280;4196;48.926;8.964;2023-04-28T09:40:57;98728.44;;;13.09;100.00
8318;BME280;4196;48.926;8.964;2023-04-28T09:43:46;98727.28;;;13.26;100.00
8318;BME280;4196;48.926;8.964;2023-04-28T09:46:32;98728.53;;;13.52;100.00
8318;BME280;4196;48.926;8.964;2023-04-28T09:49:19;98730.75;;;13.70;100.00
8318;BME280;4196;48.926;8.964;2023-04-28T09:52:12;98723.81;;;13.69;100.00
8318;BME280;4196;48.926;8.964;2023-04-28T09:55:04;98721.69;;;13.88;100.00
8318;BME280;4196;48.926;8.964;2023-04-28T09:57:53;98720.13;;;14.20;100.00
8318;BME280;4196;48.926;8.964;2023-04-28T10:00:40;98719.69;;;14.76;100.00
8318;BME280;4196;48.926;8.964;2023-04-28T10:03:28;98721.09;;;14.89;100.00
8318;BME280;4196;48.926;8.964;2023-04-28T10:06:15;98699.00;;;14.69;100.00
8318;BME280;4196;48.926;8.964;2023-04-28T10:09:02;98721.69;;;14.64;100.00
8318;BME280;4196;48.926;8.964;2023-04-28T10:11:49;98715.31;;;14.78;100.00
8318;BME280;4196;48.926;8.964;2023-04-28T10:14:36;98693.97;;;15.29;100.00
8318;BME280;4196;48.926;8.964;2023-04-28T10:17:23;98657.53;;;15.26;100.00
8318;BME280;4196;48.926;8.964;2023-04-28T10:20:15;98681.97;;;15.53;100.00
8318;BME280;4196;48.926;8.964;2023-04-28T10:26:17;98687.72;;;15.95;100.00
8318;BME280;4196;48.926;8.964;2023-04-28T10:29:05;98711.22;;;16.23;100.00
8318;BME280;4196;48.926;8.964;2023-04-28T10:32:22;98703.81;;;16.37;100.00
8318;BME280;4196;48.926;8.964;2023-04-28T10:38:16;98697.81;;;16.34;100.00
8318;BME280;4196;48.926;8.964;2023-04-28T10:41:03;98709.53;;;16.50;100.00
8318;BME280;4196;48.926;8.964;2023-04-28T10:43:49;98681.72;;;16.19;100.00
8318;BME280;4196;48.926;8.964;2023-04-28T10:47:01;98710.91;;;16.60;100.00
8318;BME280;4196;48.926;8.964;2023-04-28T10:55:33;98709.06;;;17.15;100.00
8318;BME280;4196;48.926;8.964;2023-04-28T11:04:08;98711.75;;;17.39;100.00
8318;BME280;4196;48.926;8.964;2023-04-28T11:07:10;98711.19;;;17.31;100.00
8318;BME280;4196;48.926;8.964;2023-04-28T11:09:58;98715.31;;;17.36;100.00
8318;BME280;4196;48.926;8.964;2023-04-28T11:16:08;98712.78;;;17.35;100.00
8318;BME280;4196;48.926;8.964;2023-04-28T11:18:59;98713.56;;;17.12;100.00
8318;BME280;4196;48.926;8.964;2023-04-28T11:21:51;98706.25;;;16.97;100.00
8318;BME280;4196;48.926;8.964;2023-04-28T11:24:38;98687.38;;;16.60;100.00
8318;BME280;4196;48.926;8.964;2023-04-28T11:27:26;98694.63;;;16.52;100.00
8318;BME280;4196;48.926;8.964;2023-04-28T11:30:20;98706.25;;;16.70;100.00
8318;BME280;4196;48.926;8.964;2023-04-28T11:33:08;98702.19;;;16.88;100.00
8318;BME280;4196;48.926;8.964;2023-04-28T11:35:54;98702.41;;;17.07;100.00
8318;BME280;4196;48.926;8.964;2023-04-28T11:38:43;98711.66;;;17.42;100.00
8318;BME280;4196;48.926;8.964;2023-04-28T11:41:30;98695.50;;;17.54;100.00
8318;BME280;4196;48.926;8.964;2023-04-28T11:44:19;98697.53;;;17.46;100.00
8318;BME280;4196;48.926;8.964;2023-04-28T11:47:06;98703.47;;;17.26;100.00
8318;BME280;4196;48.926;8.964;2023-04-28T11:49:53;98719.13;;;17.28;100.00
8318;BME280;4196;48.926;8.964;2023-04-28T11:52:49;98709.06;;;17.15;100.00
8318;BME280;4196;48.926;8.964;2023-04-28T11:55:39;98704.75;;;17.39;100.00
8318;BME280;4196;48.926;8.964;2023-04-28T11:58:26;98715.28;;;17.38;100.00
8318;BME280;4196;48.926;8.964;2023-04-28T12:01:13;98710.19;;;17.08;100.00
8318;BME280;4196;48.926;8.964;2023-04-28T12:04:00;98702.72;;;16.71;100.00
8318;BME280;4196;48.926;8.964;2023-04-28T12:07:19;98709.53;;;16.50;100.00
8318;BME280;4196;48.926;8.964;2023-04-28T12:10:14;98719.16;;;15.92;100.00
8318;BME280;4196;48.926;8.964;2023-04-28T12:13:29;98717.75;;;15.49;100.00
8318;BME280;4196;48.926;8.964;2023-04-28T12:16:36;98703.34;;;15.03;100.00
8318;BME280;4196;48.926;8.964;2023-04-28T12:19:24;98716.59;;;14.95;100.00
8318;BME280;4196;48.926;8.964;2023-04-28T12:22:11;98717.53;;;14.93;100.00
8318;BME280;4196;48.926;8.964;2023-04-28T12:25:05;98714.25;;;14.85;100.00
8318;BME280;4196;48.926;8.964;2023-04-28T12:28:02;98714.91;;;14.93;100.00
8318;BME280;4196;48.926;8.964;2023-04-28T12:31:02;98722.25;;;15.11;100.00
8318;BME280;4196;48.926;8.964;2023-04-28T12:33:49;98709.06;;;15.17;100.00
8318;BME280;4196;48.926;8.964;2023-04-28T12:36:35;98712.88;;;15.37;100.00
8318;BME280;4196;48.926;8.964;2023-04-28T12:39:22;98703.91;;;15.47;100.00
8318;BME280;4196;48.926;8.964;2023-04-28T12:42:09;98698.75;;;15.44;100.00
8318;BME280;4196;48.926;8.964;2023-04-28T12:44:57;98693.38;;;15.50;100.00
8318;BME280;4196;48.926;8.964;2023-04-28T12:47:44;98688.59;;;15.66;100.00
8318;BME280;4196;48.926;8.964;2023-04-28T12:50:30;98691.59;;;15.82;100.00
8318;BME280;4196;48.926;8.964;2023-04-28T12:53:18;98685.97;;;15.96;100.00
8318;BME280;4196;48.926;8.964;2023-04-28T12:56:04;98670.50;;;16.17;100.00
8318;BME280;4196;48.926;8.964;2023-04-28T12:58:51;98680.41;;;16.61;100.00
8318;BME280;4196;48.926;8.964;2023-04-28T13:01:38;98697.41;;;16.74;100.00
8318;BME280;4196;48.926;8.964;2023-04-28T13:04:25;98686.66;;;16.83;100.00
8318;BME280;4196;48.926;8.964;2023-04-28T13:07:13;98696.25;;;17.33;100.00
8318;BME280;4196;48.926;8.964;2023-04-28T13:10:00;98690.16;;;17.57;100.00
8318;BME280;4196;48.926;8.964;2023-04-28T13:12:46;98689.56;;;17.73;100.00
8318;BME280;4196;48.926;8.964;2023-04-28T13:15:33;98683.53;;;17.47;100.00
8318;BME280;4196;48.926;8.964;2023-04-28T13:18:22;98679.88;;;17.28;100.00
8318;BME280;4196;48.926;8.964;2023-04-28T13:21:09;98684.50;;;17.68;100.00
8318;BME280;4196;48.926;8.964;2023-04-28T13:23:57;98690.97;;;17.83;100.00
8318;BME280;4196;48.926;8.964;2023-04-28T13:26:44;98673.00;;;17.72;100.00
8318;BME280;4196;48.926;8.964;2023-04-28T13:29:30;98678.75;;;17.82;100.00
8318;BME280;4196;48.926;8.964;2023-04-28T13:32:17;98672.94;;;17.75;100.00
8318;BME280;4196;48.926;8.964;2023-04-28T13:35:04;98675.69;;;17.47;100.00
8318;BME280;4196;48.926;8.964;2023-04-28T13:37:50;98673.41;;;17.61;100.00
8318;BME280;4196;48.926;8.964;2023-04-28T13:40:41;98651.44;;;17.42;100.00
8318;BME280;4196;48.926;8.964;2023-04-28T13:43:28;98653.81;;;17.48;100.00
8318;BME280;4196;48.926;8.964;2023-04-28T13:46:16;98666.63;;;17.56;100.00
8318;BME280;4196;48.926;8.964;2023-04-28T13:49:03;98654.97;;;17.65;100.00
8318;BME280;4196;48.926;8.964;2023-04-28T13:51:50;98639.22;;;17.43;100.00
8318;BME280;4196;48.926;8.964;2023-04-28T13:54:36;98645.97;;;17.72;100.00
8318;BME280;4196;48.926;8.964;2023-04-28T13:57:22;98650.75;;;17.84;100.00
8318;BME280;4196;48.926;8.964;2023-04-28T14:00:09;98641.94;;;18.08;100.00
8318;BME280;4196;48.926;8.964;2023-04-28T14:02:57;98644.41;;;18.33;100.00
8318;BME280;4196;48.926;8.964;2023-04-28T14:05:44;98630.44;;;18.33;100.00
8318;BME280;4196;48.926;8.964;2023-04-28T14:08:35;98645.34;;;18.32;100.00
8318;BME280;4196;48.926;8.964;2023-04-28T14:11:21;98649.06;;;18.05;100.00
8318;BME280;4196;48.926;8.964;2023-04-28T14:14:08;98627.94;;;17.64;100.00
8318;BME280;4196;48.926;8.964;2023-04-28T14:16:54;98653.53;;;17.56;100.00
8318;BME280;4196;48.926;8.964;2023-04-28T14:19:43;98643.47;;;17.45;100.00
8318;BME280;4196;48.926;8.964;2023-04-28T14:22:29;98652.34;;;17.41;100.00
8318;BME280;4196;48.926;8.964;2023-04-28T14:25:16;98619.63;;;17.29;100.00
8318;BME280;4196;48.926;8.964;2023-04-28T14:28:04;98607.28;;;17.33;100.00
8318;BME280;4196;48.926;8.964;2023-04-28T14:30:52;98630.38;;;17.69;100.00
8318;BME280;4196;48.926;8.964;2023-04-28T14:33:39;98611.97;;;17.70;100.00
8318;BME280;4196;48.926;8.964;2023-04-28T14:36:26;98621.41;;;17.76;100.00
8318;BME280;4196;48.926;8.964;2023-04-28T14:39:12;98623.44;;;17.68;100.00
8318;BME280;4196;48.926;8.964;2023-04-28T14:41:59;98617.78;;;17.78;100.00
8318;BME280;4196;48.926;8.964;2023-04-28T14:44:46;98614.31;;;17.78;100.00
8318;BME280;4196;48.926;8.964;2023-04-28T14:47:34;98622.78;;;17.84;100.00
8318;BME280;4196;48.926;8.964;2023-04-28T14:50:21;98632.13;;;17.92;100.00
8318;BME280;4196;48.926;8.964;2023-04-28T14:53:07;98625.25;;;17.66;100.00
8318;BME280;4196;48.926;8.964;2023-04-28T14:55:54;98633.28;;;17.61;100.00
8318;BME280;4196;48.926;8.964;2023-04-28T14:58:56;98627.75;;;17.45;100.00
8318;BME280;4196;48.926;8.964;2023-04-28T15:01:42;98612.97;;;17.21;100.00
8318;BME280;4196;48.926;8.964;2023-04-28T15:04:29;98623.09;;;17.30;100.00
8318;BME280;4196;48.926;8.964;2023-04-28T15:07:16;98624.06;;;17.27;100.00
8318;BME280;4196;48.926;8.964;2023-04-28T15:10:03;98600.56;;;17.26;100.00
8318;BME280;4196;48.926;8.964;2023-04-28T15:12:50;98608.44;;;17.49;100.00
8318;BME280;4196;48.926;8.964;2023-04-28T15:15:36;98585.06;;;17.67;100.00
8318;BME280;4196;48.926;8.964;2023-04-28T15:18:23;98598.19;;;18.10;100.00
8318;BME280;4196;48.926;8.964;2023-04-28T15:21:10;98586.16;;;18.27;100.00
8318;BME280;4196;48.926;8.964;2023-04-28T15:23:57;98598.84;;;18.38;100.00
8318;BME280;4196;48.926;8.964;2023-04-28T15:26:46;98584.31;;;18.29;100.00
8318;BME280;4196;48.926;8.964;2023-04-28T15:29:33;98599.94;;;18.32;100.00
8318;BME280;4196;48.926;8.964;2023-04-28T15:32:19;98599.59;;;18.19;100.00